Time;durP1;ratioP1;P1;durP2;ratioP2;P2;SDS_P1;SDS_P2;PMS_P1;PMS_P2;Temp;Humidity;BMP_temperature;BMP_pressure;BME280_temperature;BME280_humidity;BME280_pressure;Samples;Min_cycle;Max_cycle;Signal;HPM_P1;HPM_P2
2021/12/14 00:00:22;;;;;;;142.98;75.78;;;2.00;99.90;;;;;;4954842;29;20023;-77
2021/12/14 00:02:50;;;;;;;136.48;69.30;;;2.00;99.90;;;;;;4954674;29;20035;-77
2021/12/14 00:05:19;;;;;;;143.48;74.03;;;2.00;99.90;;;;;;4955325;28;20024;-78
2021/12/14 00:07:46;;;;;;;152.80;80.15;;;2.00;99.90;;;;;;4957787;28;20027;-78
2021/12/14 00:13:57;;;;;;;153.45;79.93;;;2.00;99.90;;;;;;4958447;29;20086;-77
2021/12/14 00:15:50;;;;;;;137.30;71.05;;;2.00;99.90;;;;;;4951012;29;20082;-77
2021/12/14 00:18:16;;;;;;;136.18;69.78;;;2.00;99.90;;;;;;4958196;28;20023;-77
2021/12/14 00:20:52;;;;;;;133.82;70.50;;;2.00;99.90;;;;;;4958257;29;20023;-78
2021/12/14 00:26:06;;;;;;;157.88;77.88;;;2.00;99.90;;;;;;4958012;29;20099;-77
2021/12/14 00:28:33;;;;;;;156.93;80.70;;;2.00;99.90;;;;;;4958504;28;20031;-78
2021/12/14 00:31:03;;;;;;;157.32;77.60;;;2.00;99.90;;;;;;4957952;29;20027;-78
2021/12/14 00:33:33;;;;;;;158.15;81.88;;;2.00;99.90;;;;;;4958045;29;20027;-78
2021/12/14 00:36:02;;;;;;;146.52;76.43;;;2.00;99.90;;;;;;4958215;29;20054;-77
2021/12/14 00:38:29;;;;;;;174.02;93.63;;;2.00;99.90;;;;;;4957797;29;20074;-77
2021/12/14 00:40:59;;;;;;;170.13;90.10;;;2.00;99.90;;;;;;4957880;28;20443;-77
2021/12/14 00:43:25;;;;;;;151.80;80.70;;;2.00;99.90;;;;;;4957933;29;20094;-77
2021/12/14 00:45:52;;;;;;;146.70;77.47;;;2.00;99.90;;;;;;4957677;29;20019;-77
2021/12/14 00:48:19;;;;;;;157.95;79.15;;;1.90;99.90;;;;;;4957732;29;20128;-77
2021/12/14 00:50:49;;;;;;;154.45;81.45;;;1.90;99.90;;;;;;4957485;29;20073;-77
2021/12/14 00:53:15;;;;;;;154.90;81.35;;;1.90;99.90;;;;;;4957867;29;20034;-77
2021/12/14 00:55:44;;;;;;;151.77;78.07;;;1.90;99.90;;;;;;4957514;29;20038;-76
2021/12/14 00:58:12;;;;;;;189.77;96.25;;;1.90;99.90;;;;;;4957443;28;20050;-76
2021/12/14 01:00:52;;;;;;;184.30;93.80;;;1.90;99.90;;;;;;4957358;28;20034;-77
2021/12/14 01:03:19;;;;;;;166.05;83.45;;;1.90;99.90;;;;;;4957490;29;20035;-76
2021/12/14 01:05:48;;;;;;;153.57;80.30;;;1.90;99.90;;;;;;4957057;28;20027;-77
2021/12/14 01:08:19;;;;;;;156.40;82.35;;;1.90;99.90;;;;;;4957387;29;20030;-77
2021/12/14 01:11:05;;;;;;;144.73;74.82;;;1.90;99.90;;;;;;4957470;29;20455;-76
2021/12/14 01:13:36;;;;;;;147.48;71.78;;;1.90;99.90;;;;;;4957526;29;20054;-77
2021/12/14 01:16:31;;;;;;;143.65;71.50;;;1.90;99.90;;;;;;4957440;29;20019;-77
2021/12/14 01:25:06;;;;;;;135.45;66.35;;;1.90;99.90;;;;;;4916665;29;20130;-77
2021/12/14 01:27:43;;;;;;;124.43;61.90;;;1.90;99.90;;;;;;4916521;29;20394;-76
2021/12/14 01:30:20;;;;;;;135.32;63.72;;;1.90;99.90;;;;;;4916588;29;20033;-77
2021/12/14 01:32:48;;;;;;;119.57;60.65;;;1.90;99.90;;;;;;4916843;29;20455;-77
2021/12/14 01:35:20;;;;;;;118.03;63.63;;;1.90;99.90;;;;;;4916335;29;20099;-78
2021/12/14 01:37:59;;;;;;;115.68;60.22;;;1.90;99.90;;;;;;4900633;29;20060;-77
2021/12/14 01:40:53;;;;;;;111.22;58.50;;;1.90;99.90;;;;;;4916237;29;20044;-76
2021/12/14 01:43:13;;;;;;;111.47;58.67;;;1.90;99.90;;;;;;4915699;29;20186;-77
2021/12/14 01:45:39;;;;;;;107.65;56.20;;;1.90;99.90;;;;;;4916327;29;20581;-77
2021/12/14 01:48:04;;;;;;;111.25;57.08;;;1.90;99.90;;;;;;4900273;29;20023;-77
2021/12/14 01:50:48;;;;;;;110.80;57.10;;;1.90;99.90;;;;;;4916136;29;20151;-77
2021/12/14 01:53:15;;;;;;;105.95;54.85;;;1.90;99.90;;;;;;4916259;29;20110;-78
2021/12/14 01:55:50;;;;;;;110.40;57.58;;;1.90;99.90;;;;;;4915975;29;20538;-77
2021/12/14 01:58:18;;;;;;;112.93;58.08;;;1.90;99.90;;;;;;4934916;29;20038;-77
2021/12/14 02:00:56;;;;;;;117.22;57.05;;;1.80;99.90;;;;;;4956255;29;20031;-77
2021/12/14 02:03:32;;;;;;;113.20;56.35;;;1.80;99.90;;;;;;4956208;29;20031;-77
2021/12/14 02:05:58;;;;;;;114.63;56.63;;;1.80;99.90;;;;;;4956116;29;20019;-77
2021/12/14 02:08:28;;;;;;;111.72;56.25;;;1.70;99.90;;;;;;4955854;28;20027;-77
2021/12/14 02:10:56;;;;;;;108.05;56.03;;;1.70;99.90;;;;;;4956296;28;20020;-78
2021/12/14 02:13:29;;;;;;;117.18;59.30;;;1.70;99.90;;;;;;4956306;29;20466;-77
2021/12/14 02:15:56;;;;;;;129.85;63.38;;;1.70;99.90;;;;;;4956535;29;20023;-77
2021/12/14 02:18:23;;;;;;;141.00;66.45;;;1.70;99.90;;;;;;4956102;29;20030;-77
2021/12/14 02:21:00;;;;;;;130.25;61.33;;;1.70;99.90;;;;;;4956461;29;20110;-76
2021/12/14 02:23:27;;;;;;;113.07;59.10;;;1.70;99.90;;;;;;4955882;29;20050;-77
2021/12/14 02:25:57;;;;;;;109.82;59.72;;;1.70;99.90;;;;;;4955757;28;20106;-77
2021/12/14 02:28:23;;;;;;;117.78;62.88;;;1.70;99.90;;;;;;4956376;29;20015;-77
2021/12/14 02:30:55;;;;;;;111.88;59.95;;;1.70;99.90;;;;;;4955400;28;20055;-77
2021/12/14 02:33:33;;;;;;;107.38;56.42;;;1.70;99.90;;;;;;4954752;29;20038;-76
2021/12/14 02:36:03;;;;;;;112.55;59.22;;;1.80;99.90;;;;;;4955674;29;20114;-77
2021/12/14 02:38:29;;;;;;;114.57;57.35;;;1.80;99.90;;;;;;4955696;29;20046;-77
2021/12/14 02:41:01;;;;;;;109.60;59.83;;;1.80;99.90;;;;;;4954276;29;20385;-78
2021/12/14 02:43:35;;;;;;;;;;;1.80;99.90;;;;;;4956086;29;20058;-77
2021/12/14 02:46:23;;;;;;;107.45;54.88;;;1.80;99.90;;;;;;4955504;28;19906;-76
2021/12/14 02:48:53;;;;;;;109.20;54.97;;;1.80;99.90;;;;;;4955926;29;20114;-77
2021/12/14 02:51:24;;;;;;;106.00;58.53;;;1.80;99.90;;;;;;4955376;29;20110;-77
2021/12/14 02:53:53;;;;;;;112.88;58.78;;;1.90;99.90;;;;;;4955745;29;20062;-77
2021/12/14 02:56:24;;;;;;;110.45;58.67;;;1.90;99.90;;;;;;4955483;28;20110;-78
2021/12/14 02:58:56;;;;;;;119.37;62.13;;;1.90;99.90;;;;;;4955718;29;20055;-77
2021/12/14 03:01:22;;;;;;;125.05;64.88;;;1.90;99.90;;;;;;4955403;29;20047;-78
2021/12/14 03:03:48;;;;;;;132.13;68.93;;;2.00;99.90;;;;;;4955361;29;20054;-78
2021/12/14 03:06:20;;;;;;;123.78;67.10;;;2.00;99.90;;;;;;4955225;29;20403;-77
2021/12/14 03:08:57;;;;;;;136.10;68.07;;;2.00;99.90;;;;;;4955905;29;20371;-77
2021/12/14 03:11:24;;;;;;;139.10;71.80;;;2.00;99.90;;;;;;4955153;29;20451;-78
2021/12/14 03:13:52;;;;;;;143.70;71.30;;;2.00;99.90;;;;;;4955768;29;20082;-78
2021/12/14 03:16:25;;;;;;;134.57;68.35;;;2.00;99.90;;;;;;4955686;29;20451;-78
2021/12/14 03:18:54;;;;;;;129.77;67.35;;;2.00;99.90;;;;;;4955603;29;20023;-77
2021/12/14 03:21:30;;;;;;;123.28;65.35;;;2.10;99.90;;;;;;4955455;28;20073;-77
2021/12/14 03:24:03;;;;;;;134.40;70.97;;;2.10;99.90;;;;;;4955335;29;20114;-77
2021/12/14 03:26:32;;;;;;;121.43;64.25;;;2.10;99.90;;;;;;4955358;29;20473;-78
2021/12/14 03:29:03;;;;;;;112.80;59.40;;;2.10;99.90;;;;;;4955520;29;20023;-78
2021/12/14 03:31:33;;;;;;;117.75;59.35;;;2.10;99.90;;;;;;4955554;29;20034;-77
2021/12/14 03:34:24;;;;;;;107.70;57.03;;;2.10;99.90;;;;;;4954950;28;20070;-79
2021/12/14 03:36:55;;;;;;;110.45;57.80;;;2.10;99.90;;;;;;4947453;28;20434;-78
2021/12/14 03:39:40;;;;;;;121.53;61.63;;;2.10;99.90;;;;;;4955189;29;20093;-77
2021/12/14 03:42:18;;;;;;;119.90;58.95;;;2.10;99.90;;;;;;4957053;28;20042;-78
2021/12/14 03:44:48;;;;;;;110.53;56.15;;;2.10;99.90;;;;;;4958955;29;20035;-79
2021/12/14 03:47:21;;;;;;;111.68;57.47;;;2.10;99.90;;;;;;4958260;29;20027;-78
2021/12/14 03:49:54;;;;;;;111.82;58.63;;;2.10;99.90;;;;;;4958875;28;20023;-78
2021/12/14 03:52:28;;;;;;;112.75;54.83;;;2.10;99.90;;;;;;4958928;29;20019;-78
2021/12/14 03:54:55;;;;;;;102.07;53.03;;;2.10;99.90;;;;;;4958663;29;20023;-78
2021/12/14 03:57:21;;;;;;;113.85;53.38;;;2.10;99.90;;;;;;4958445;29;20090;-78
2021/12/14 03:59:48;;;;;;;117.43;54.90;;;2.10;99.90;;;;;;4958767;28;20024;-78
2021/12/14 04:02:17;;;;;;;126.90;55.88;;;2.10;99.90;;;;;;4957295;28;20055;-78
2021/12/14 04:05:01;;;;;;;113.15;56.30;;;2.10;99.90;;;;;;4958477;28;20053;-78
2021/12/14 04:07:27;;;;;;;119.28;57.58;;;2.10;99.90;;;;;;4958485;29;20031;-79
2021/12/14 04:09:54;;;;;;;130.60;59.63;;;2.00;99.90;;;;;;4958205;29;20102;-78
2021/12/14 04:12:23;;;;;;;139.65;66.00;;;2.00;99.90;;;;;;4958621;28;20030;-77
2021/12/14 04:14:53;;;;;;;161.50;70.25;;;2.00;99.90;;;;;;4958270;29;20031;-78
2021/12/14 04:17:22;;;;;;;171.57;71.82;;;2.00;99.90;;;;;;4958107;29;20382;-78
2021/12/14 04:19:48;;;;;;;146.73;65.85;;;1.90;99.90;;;;;;4958394;29;20027;-78
2021/12/14 04:22:22;;;;;;;148.50;64.82;;;1.90;99.90;;;;;;4958173;29;20023;-78
2021/12/14 04:24:52;;;;;;;190.05;82.30;;;1.90;99.90;;;;;;4958030;29;20037;-78
2021/12/14 04:27:22;;;;;;;209.65;88.20;;;1.90;99.90;;;;;;4957983;29;20106;-78
2021/12/14 04:29:49;;;;;;;261.33;98.30;;;1.90;99.90;;;;;;4956914;29;20023;-78
2021/12/14 04:32:16;;;;;;;179.43;73.45;;;1.80;99.90;;;;;;4958072;29;20034;-78
2021/12/14 04:34:42;;;;;;;179.63;70.88;;;1.80;99.90;;;;;;4957774;29;20031;-78
2021/12/14 04:37:09;;;;;;;185.75;70.45;;;1.70;99.90;;;;;;4957602;29;20023;-78
2021/12/14 04:39:43;;;;;;;206.43;82.57;;;1.70;99.90;;;;;;4957439;28;20023;-78
2021/12/14 04:53:15;;;;;;;387.88;104.82;;;1.50;99.90;;;;;;4957047;28;20122;-78
2021/12/14 04:55:43;;;;;;;537.53;133.45;;;1.40;99.90;;;;;;4957486;29;20462;-77
2021/12/14 04:58:10;;;;;;;567.47;148.70;;;1.50;99.90;;;;;;4957505;29;20410;-78
2021/12/14 05:00:38;;;;;;;619.35;173.20;;;1.40;99.90;;;;;;4957218;28;20375;-77
2021/12/14 05:03:13;;;;;;;617.70;144.40;;;1.40;99.90;;;;;;4957294;29;20070;-78
2021/12/14 05:05:47;;;;;;;592.25;124.68;;;1.40;99.90;;;;;;4957313;29;20024;-78
2021/12/14 05:10:52;;;;;;;478.00;104.45;;;1.30;99.90;;;;;;4957236;28;20055;-77
2021/12/14 05:13:29;;;;;;;786.92;141.90;;;1.40;99.90;;;;;;4957288;29;20031;-78
2021/12/14 05:15:55;;;;;;;672.95;117.07;;;1.30;99.90;;;;;;4957443;29;20039;-78
2021/12/14 05:18:22;;;;;;;836.85;135.98;;;1.30;99.90;;;;;;4957101;29;20106;-77
2021/12/14 05:20:49;;;;;;;495.05;100.57;;;1.30;99.90;;;;;;4956894;28;20447;-76
2021/12/14 05:23:24;;;;;;;758.00;116.28;;;1.40;99.90;;;;;;4957124;29;20115;-77
2021/12/14 05:25:51;;;;;;;443.75;105.82;;;1.40;99.90;;;;;;4956819;28;20466;-77
2021/12/14 05:28:19;;;;;;;468.95;106.68;;;1.40;99.90;;;;;;4957282;29;20027;-77
2021/12/14 05:30:47;;;;;;;417.67;99.32;;;1.40;99.90;;;;;;4955853;29;20030;-78
2021/12/14 05:33:18;;;;;;;471.10;101.82;;;1.30;99.90;;;;;;4956804;28;20019;-78
2021/12/14 05:35:47;;;;;;;565.08;117.63;;;1.30;99.90;;;;;;4956641;29;20483;-78
2021/12/14 05:38:17;;;;;;;562.70;110.68;;;1.30;99.90;;;;;;4956742;29;20110;-78
2021/12/14 05:40:57;;;;;;;548.05;111.15;;;1.30;99.90;;;;;;4956985;29;20053;-80
2021/12/14 05:43:29;;;;;;;453.50;84.72;;;1.30;99.90;;;;;;4956819;29;20059;-78
2021/12/14 05:46:02;;;;;;;602.25;88.07;;;1.20;99.90;;;;;;4956666;29;20029;-78
2021/12/14 05:48:33;;;;;;;660.42;89.05;;;1.20;99.90;;;;;;4956599;29;20019;-78
2021/12/14 05:51:04;;;;;;;483.58;77.95;;;1.10;99.90;;;;;;4956628;29;20023;-77
2021/12/14 05:53:41;;;;;;;594.90;80.37;;;1.10;99.90;;;;;;4956546;29;20507;-77
2021/12/14 05:56:14;;;;;;;572.78;80.95;;;1.00;99.90;;;;;;4955308;29;20265;-77
2021/12/14 05:58:40;;;;;;;521.47;70.03;;;0.90;99.90;;;;;;4956677;29;20041;-77
2021/12/14 06:01:13;;;;;;;572.00;78.55;;;0.80;99.90;;;;;;4956363;28;20059;-78
2021/12/14 06:03:54;;;;;;;477.70;70.68;;;0.80;99.90;;;;;;4956242;28;20125;-77
2021/12/14 06:06:25;;;;;;;423.80;78.18;;;0.70;99.90;;;;;;4956007;29;20020;-77
2021/12/14 06:09:09;;;;;;;541.83;82.60;;;0.70;99.90;;;;;;4955771;29;20458;-78
2021/12/14 06:11:36;;;;;;;463.60;84.32;;;0.70;99.90;;;;;;4955505;28;20026;-78
2021/12/14 06:14:03;;;;;;;410.98;81.03;;;0.70;99.90;;;;;;4954308;29;20037;-78
2021/12/14 06:16:35;;;;;;;422.30;82.13;;;0.60;99.90;;;;;;4955633;29;20023;-77
2021/12/14 06:19:21;;;;;;;;;;;0.60;99.90;;;;;;4956609;29;20482;-77
2021/12/14 06:21:57;;;;;;;547.92;100.22;;;0.60;99.90;;;;;;4956233;28;20446;-77
2021/12/14 06:24:25;;;;;;;501.85;85.30;;;0.60;99.90;;;;;;4954740;29;20047;-77
2021/12/14 06:26:53;;;;;;;598.38;98.32;;;0.60;99.90;;;;;;4955819;29;20116;-78
2021/12/14 06:29:24;;;;;;;749.50;118.22;;;0.60;99.90;;;;;;4955901;29;20023;-77
2021/12/14 06:31:51;;;;;;;676.95;137.60;;;0.70;99.90;;;;;;4956055;29;20023;-77
2021/12/14 06:34:21;;;;;;;674.45;130.80;;;0.70;99.90;;;;;;4955806;29;20034;-77
2021/12/14 06:36:52;;;;;;;689.25;131.30;;;0.80;99.90;;;;;;4954778;29;20023;-78
2021/12/14 06:39:19;;;;;;;639.60;104.60;;;0.80;99.90;;;;;;4956016;29;20065;-77
2021/12/14 06:41:45;;;;;;;632.15;108.88;;;0.80;99.90;;;;;;4956007;29;20085;-78
2021/12/14 06:44:11;;;;;;;648.08;126.78;;;0.90;99.90;;;;;;4955446;28;20039;-77
2021/12/14 06:46:40;;;;;;;575.00;95.38;;;0.90;99.90;;;;;;4955607;29;20019;-79
2021/12/14 06:49:12;;;;;;;629.60;137.43;;;0.90;99.90;;;;;;4955679;29;20023;-78
2021/12/14 06:51:42;;;;;;;568.45;148.85;;;1.00;99.90;;;;;;4955801;29;20065;-78
2021/12/14 06:54:13;;;;;;;507.83;122.47;;;1.00;99.90;;;;;;4954768;29;20054;-78
2021/12/14 06:56:40;;;;;;;489.50;112.05;;;1.00;99.90;;;;;;4955515;29;20023;-78
2021/12/14 06:59:12;;;;;;;449.77;106.97;;;1.10;99.90;;;;;;4955673;29;20471;-78
2021/12/14 07:01:46;;;;;;;438.77;107.65;;;1.10;99.90;;;;;;4955462;29;20030;-79
2021/12/14 07:04:23;;;;;;;445.80;112.60;;;1.10;99.90;;;;;;4955568;29;20035;-78
2021/12/14 07:06:54;;;;;;;508.92;128.82;;;1.10;99.90;;;;;;4954515;29;20118;-78
2021/12/14 07:09:30;;;;;;;299.65;84.15;;;1.10;99.90;;;;;;4955540;29;20023;-79
2021/12/14 07:12:00;;;;;;;418.40;118.93;;;1.10;99.90;;;;;;4955647;29;20028;-79
2021/12/14 07:14:26;;;;;;;426.13;128.75;;;1.20;99.90;;;;;;4955641;29;20035;-78
2021/12/14 07:16:58;;;;;;;400.98;121.22;;;1.20;99.90;;;;;;4958520;28;20028;-78
2021/12/14 07:19:43;;;;;;;411.98;127.47;;;1.20;99.90;;;;;;4959357;29;20506;-78
2021/12/14 07:22:33;;;;;;;422.40;145.93;;;1.20;99.90;;;;;;4958330;29;20371;-78
2021/12/14 07:25:23;;;;;;;352.85;112.85;;;1.30;99.90;;;;;;4947385;29;20039;-78
2021/12/14 07:27:55;;;;;;;325.52;97.72;;;1.30;99.90;;;;;;4959314;29;20447;-77
2021/12/14 07:30:32;;;;;;;339.35;94.72;;;1.40;99.90;;;;;;4959467;29;20102;-79
2021/12/14 07:33:11;;;;;;;356.02;100.18;;;1.30;99.90;;;;;;4958918;29;20051;-78
2021/12/14 07:35:58;;;;;;;380.23;105.00;;;1.40;99.90;;;;;;4958978;29;20030;-77
2021/12/14 07:38:50;;;;;;;407.88;103.80;;;1.40;99.90;;;;;;4958702;29;20479;-77
2021/12/14 07:41:21;;;;;;;458.48;114.30;;;1.40;99.90;;;;;;4959119;29;20115;-77
2021/12/14 07:43:55;;;;;;;417.98;108.80;;;1.50;99.90;;;;;;4959204;29;20121;-79
2021/12/14 07:46:44;;;;;;;403.25;103.05;;;1.50;99.90;;;;;;4958858;29;20378;-78
2021/12/14 07:49:21;;;;;;;398.33;101.50;;;1.50;99.90;;;;;;4957400;29;20027;-78
2021/12/14 07:51:51;;;;;;;389.58;91.35;;;1.50;99.90;;;;;;4958460;29;20355;-78
2021/12/14 07:54:29;;;;;;;463.45;99.28;;;1.50;99.90;;;;;;4957562;29;20126;-78
2021/12/14 07:57:23;;;;;;;431.35;99.90;;;1.50;99.90;;;;;;4958971;28;20030;-78
2021/12/14 07:59:59;;;;;;;456.65;105.50;;;1.60;99.90;;;;;;4958972;28;20015;-78
2021/12/14 08:02:56;;;;;;;451.90;100.85;;;1.60;99.90;;;;;;4957376;29;20078;-77
2021/12/14 08:05:23;;;;;;;464.40;111.32;;;1.60;99.90;;;;;;4957411;29;20055;-77
2021/12/14 08:08:09;;;;;;;411.50;103.00;;;1.50;99.90;;;;;;4958636;29;20037;-78
2021/12/14 08:10:40;;;;;;;450.60;113.80;;;1.60;99.90;;;;;;4958653;29;20027;-78
2021/12/14 08:13:09;;;;;;;513.13;125.75;;;1.60;99.90;;;;;;4958095;29;20102;-79
2021/12/14 08:15:51;;;;;;;412.90;118.55;;;1.60;99.90;;;;;;4958347;29;20024;-77
2021/12/14 08:18:27;;;;;;;431.95;115.88;;;1.70;99.90;;;;;;4958202;29;20414;-77
2021/12/14 08:21:11;;;;;;;455.33;124.03;;;1.70;99.90;;;;;;4958334;29;20102;-77
2021/12/14 08:23:50;;;;;;;418.05;116.88;;;1.70;99.90;;;;;;4958267;29;20027;-76
2021/12/14 08:26:31;;;;;;;396.30;105.78;;;1.70;99.90;;;;;;4957898;29;20344;-77
2021/12/14 08:29:02;;;;;;;308.38;78.10;;;1.80;99.90;;;;;;4957594;29;20023;-77
2021/12/14 08:32:04;;;;;;;376.70;104.73;;;1.80;99.90;;;;;;4958003;28;20348;-78
2021/12/14 08:34:33;;;;;;;341.25;98.75;;;1.80;99.90;;;;;;4958052;29;20081;-77
2021/12/14 08:37:33;;;;;;;417.00;122.82;;;1.70;99.90;;;;;;4957968;28;20367;-77
2021/12/14 08:40:19;;;;;;;419.05;127.55;;;1.80;99.90;;;;;;4956631;29;20114;-77
2021/12/14 08:43:01;;;;;;;364.73;102.07;;;1.90;99.90;;;;;;4958211;29;20058;-77
2021/12/14 08:45:33;;;;;;;403.13;116.40;;;1.90;99.90;;;;;;4958161;29;20420;-76
2021/12/14 08:48:02;;;;;;;399.20;126.13;;;1.90;99.90;;;;;;4956519;29;20031;-76
2021/12/14 08:50:33;;;;;;;424.17;138.52;;;2.00;99.90;;;;;;4957502;29;20019;-76
2021/12/14 08:52:59;;;;;;;442.55;130.45;;;2.00;99.90;;;;;;4957919;29;20015;-75
2021/12/14 08:55:31;;;;;;;369.48;112.32;;;2.00;99.90;;;;;;4957580;29;20020;-76
2021/12/14 08:57:58;;;;;;;329.77;99.97;;;2.10;99.90;;;;;;4957859;29;20023;-77
2021/12/14 09:00:30;;;;;;;333.48;101.25;;;2.00;99.90;;;;;;4957390;29;20024;-77
2021/12/14 09:03:00;;;;;;;395.60;128.38;;;2.10;99.90;;;;;;4957730;28;20023;-77
2021/12/14 09:05:32;;;;;;;388.35;124.70;;;2.20;99.90;;;;;;4957466;29;20023;-76
2021/12/14 09:07:59;;;;;;;396.50;127.32;;;2.20;99.90;;;;;;4957387;29;20028;-77
2021/12/14 09:10:28;;;;;;;379.08;121.78;;;2.10;99.90;;;;;;4957580;29;20078;-78
2021/12/14 09:12:59;;;;;;;334.00;114.18;;;2.20;99.90;;;;;;4957345;29;20020;-77
2021/12/14 09:15:50;;;;;;;360.17;124.25;;;2.20;99.90;;;;;;4956942;29;20027;-76
2021/12/14 09:18:18;;;;;;;364.65;136.05;;;2.20;99.90;;;;;;4956797;28;20074;-76
2021/12/14 09:20:55;;;;;;;344.63;124.85;;;2.20;99.90;;;;;;4957013;28;20027;-76
2021/12/14 09:23:26;;;;;;;267.55;95.05;;;2.30;99.90;;;;;;4957041;29;20035;-77
2021/12/14 09:25:52;;;;;;;258.63;93.60;;;2.20;99.90;;;;;;4957693;29;20054;-76
2021/12/14 09:28:18;;;;;;;248.02;89.80;;;2.20;99.90;;;;;;4957290;28;20027;-76
2021/12/14 09:30:58;;;;;;;227.27;81.28;;;2.20;99.90;;;;;;4956902;28;20096;-76
2021/12/14 09:33:26;;;;;;;220.05;85.78;;;2.30;99.90;;;;;;4956685;29;20035;-77
2021/12/14 09:35:55;;;;;;;269.02;105.20;;;2.20;99.90;;;;;;4956774;29;20039;-76
2021/12/14 09:38:31;;;;;;;247.00;97.40;;;2.30;99.90;;;;;;4956903;28;20050;-77
2021/12/14 09:40:59;;;;;;;224.70;86.30;;;2.40;99.90;;;;;;4956938;29;20046;-76
2021/12/14 09:43:25;;;;;;;202.98;86.45;;;2.40;99.90;;;;;;4956374;29;20133;-75
2021/12/14 09:45:54;;;;;;;196.13;81.97;;;2.40;99.90;;;;;;4956862;29;20026;-76
2021/12/14 09:48:27;;;;;;;184.88;82.68;;;2.50;99.90;;;;;;4957065;29;20023;-76
2021/12/14 09:50:55;;;;;;;173.85;80.57;;;2.50;99.90;;;;;;4956330;29;20527;-76
2021/12/14 09:53:26;;;;;;;181.02;84.63;;;2.50;99.90;;;;;;4956458;28;20030;-76
2021/12/14 09:55:56;;;;;;;176.57;80.00;;;2.60;99.90;;;;;;4956830;29;20090;-76
2021/12/14 09:58:28;;;;;;;164.73;74.85;;;2.60;99.90;;;;;;4956719;29;20114;-75
2021/12/14 10:01:17;;;;;;;145.52;66.72;;;2.70;99.90;;;;;;4956214;29;20022;-76
2021/12/14 10:03:45;;;;;;;135.75;62.03;;;2.90;99.90;;;;;;4948790;29;20047;-75
2021/12/14 10:06:16;;;;;;;130.27;61.85;;;3.00;99.90;;;;;;4956022;29;20537;-76
2021/12/14 10:08:47;;;;;;;160.45;71.97;;;3.00;99.90;;;;;;4956349;29;20019;-76
2021/12/14 10:11:37;;;;;;;146.43;68.15;;;3.00;99.90;;;;;;4956313;29;20065;-76
2021/12/14 10:14:05;;;;;;;136.77;61.85;;;3.00;99.90;;;;;;4956344;29;20117;-75
2021/12/14 10:16:31;;;;;;;145.82;65.63;;;2.90;99.90;;;;;;4956258;29;20026;-75
2021/12/14 10:19:09;;;;;;;145.65;66.03;;;2.90;99.90;;;;;;4956087;29;20023;-76
2021/12/14 10:21:42;;;;;;;143.50;66.90;;;3.00;99.90;;;;;;4956154;29;20027;-75
2021/12/14 10:24:08;;;;;;;149.80;66.43;;;3.00;99.90;;;;;;4956214;29;20037;-75
2021/12/14 10:26:40;;;;;;;223.07;97.53;;;3.10;99.90;;;;;;4955966;28;20026;-76
2021/12/14 10:29:07;;;;;;;224.05;100.43;;;3.10;99.90;;;;;;4955844;29;20455;-76
2021/12/14 10:31:43;;;;;;;281.20;126.03;;;3.20;99.90;;;;;;4956117;29;20055;-75
2021/12/14 10:34:14;;;;;;;235.38;111.57;;;3.30;99.90;;;;;;4955583;29;20031;-77
2021/12/14 10:36:46;;;;;;;159.30;75.00;;;3.30;99.90;;;;;;4955757;29;20102;-75
2021/12/14 10:39:37;;;;;;;165.35;77.57;;;3.30;99.90;;;;;;4954643;29;20063;-75
2021/12/14 10:44:59;;;;;;;148.35;70.00;;;3.30;99.90;;;;;;4955636;29;20098;-75
2021/12/14 10:47:30;;;;;;;168.77;82.28;;;3.40;99.90;;;;;;4955652;29;20079;-75
2021/12/14 10:49:58;;;;;;;194.43;102.20;;;3.50;99.90;;;;;;4955469;28;20515;-75
2021/12/14 10:52:27;;;;;;;134.60;68.72;;;3.70;99.90;;;;;;4955674;28;20033;-76
2021/12/14 10:55:08;;;;;;;119.03;61.78;;;3.70;99.90;;;;;;4955528;29;20472;-75
2021/12/14 10:57:35;;;;;;;100.47;55.08;;;3.90;99.90;;;;;;4955681;29;20082;-75
2021/12/14 11:00:09;;;;;;;96.82;49.28;;;3.80;99.90;;;;;;4955317;29;20027;-75
2021/12/14 11:02:40;;;;;;;82.55;45.85;;;3.90;99.90;;;;;;4955780;29;20046;-75
2021/12/14 11:05:14;;;;;;;89.47;50.57;;;3.90;99.90;;;;;;4955331;29;20031;-75
2021/12/14 11:07:42;;;;;;;98.30;50.03;;;4.20;99.90;;;;;;4955614;29;20246;-75
2021/12/14 11:10:32;;;;;;;96.30;52.00;;;4.20;99.90;;;;;;4955439;29;20071;-74
2021/12/14 11:13:02;;;;;;;76.82;41.67;;;4.20;99.90;;;;;;4955548;29;20028;-74
2021/12/14 11:15:35;;;;;;;76.50;42.38;;;4.20;99.90;;;;;;4955138;29;20459;-74
2021/12/14 11:18:09;;;;;;;77.15;44.75;;;4.40;99.90;;;;;;4955759;28;20027;-75
2021/12/14 11:20:37;;;;;;;106.65;54.20;;;4.40;99.90;;;;;;4955286;29;20363;-74
2021/12/14 11:23:08;;;;;;;89.63;48.20;;;4.50;99.90;;;;;;4955360;29;20031;-75
2021/12/14 11:25:44;;;;;;;120.68;57.38;;;4.60;99.90;;;;;;4955641;29;20465;-74
2021/12/14 11:28:24;;;;;;;122.40;63.13;;;4.60;99.90;;;;;;4955104;29;20032;-74
2021/12/14 11:30:54;;;;;;;145.93;70.60;;;4.40;99.90;;;;;;4955201;29;20027;-74
2021/12/14 11:33:26;;;;;;;156.57;80.47;;;4.40;99.90;;;;;;4955179;28;20038;-74
2021/12/14 11:35:55;;;;;;;;;;;4.50;99.90;;;;;;4955645;29;20070;-74
2021/12/14 11:38:40;;;;;;;292.67;146.52;;;4.60;99.90;;;;;;4955054;29;19909;-74
2021/12/14 11:41:31;;;;;;;367.13;176.98;;;4.70;99.90;;;;;;4954897;28;20055;-74
2021/12/14 11:44:07;;;;;;;482.30;239.45;;;4.70;99.90;;;;;;4955153;28;20027;-73
2021/12/14 11:46:44;;;;;;;211.35;109.18;;;4.80;99.90;;;;;;4955268;28;20024;-73
2021/12/14 11:49:10;;;;;;;208.25;108.10;;;4.80;99.90;;;;;;4955345;29;20024;-72
2021/12/14 11:51:36;;;;;;;147.23;77.85;;;5.00;99.90;;;;;;4955308;28;20023;-73
2021/12/14 11:54:02;;;;;;;133.55;67.80;;;5.00;99.90;;;;;;4955198;29;20027;-74
2021/12/14 11:56:31;;;;;;;169.13;86.95;;;4.90;99.90;;;;;;4954819;29;20031;-73
2021/12/14 11:59:01;;;;;;;137.65;76.15;;;4.90;99.90;;;;;;4954668;29;20023;-73
2021/12/14 12:01:41;;;;;;;127.75;66.00;;;4.90;99.90;;;;;;4955038;28;20026;-72
2021/12/14 12:04:29;;;;;;;403.83;190.63;;;4.90;99.90;;;;;;4957851;29;20037;-73
2021/12/14 12:09:36;;;;;;;240.10;125.33;;;5.10;99.90;;;;;;4957486;29;20610;-73
2021/12/14 12:12:05;;;;;;;202.80;106.32;;;5.10;99.90;;;;;;4957915;29;20267;-73
2021/12/14 12:14:47;;;;;;;171.90;92.57;;;5.20;99.90;;;;;;4958431;28;20031;-73
2021/12/14 12:17:36;;;;;;;220.00;120.15;;;5.10;99.90;;;;;;4958721;29;20526;-73
2021/12/14 12:20:20;;;;;;;261.02;141.70;;;4.90;99.90;;;;;;4958455;29;20061;-75
2021/12/14 12:23:02;;;;;;;167.80;93.78;;;4.80;99.90;;;;;;4957344;29;20477;-74
2021/12/14 12:25:40;;;;;;;307.48;131.07;;;4.70;99.90;;;;;;4957546;29;20031;-72
2021/12/14 12:28:13;;;;;;;262.90;108.15;;;4.60;99.90;;;;;;4958338;28;20023;-72
2021/12/14 12:30:46;;;;;;;320.38;113.40;;;4.60;99.90;;;;;;4958364;29;20019;-73
2021/12/14 12:33:37;;;;;;;488.90;164.55;;;4.60;99.90;;;;;;4958065;29;20027;-74
2021/12/14 12:36:13;;;;;;;455.25;155.25;;;4.70;99.90;;;;;;4957289;29;20042;-74
2021/12/14 12:38:56;;;;;;;336.38;128.13;;;4.70;99.90;;;;;;4957894;28;20027;-73
2021/12/14 12:41:47;;;;;;;432.27;147.73;;;4.80;99.90;;;;;;4956786;29;20554;-73
2021/12/14 12:44:16;;;;;;;425.95;148.75;;;4.80;99.90;;;;;;4957730;29;20035;-73
2021/12/14 12:46:51;;;;;;;245.65;99.80;;;4.70;99.90;;;;;;4957773;29;20105;-73
2021/12/14 12:49:24;;;;;;;364.10;159.00;;;4.60;99.90;;;;;;4957543;29;20366;-73
2021/12/14 12:51:55;;;;;;;168.75;83.60;;;4.60;99.90;;;;;;4957769;28;20027;-72
2021/12/14 12:54:33;;;;;;;130.48;69.68;;;4.50;99.90;;;;;;4957621;29;20034;-74
2021/12/14 12:57:11;;;;;;;145.25;77.57;;;4.40;99.90;;;;;;4957571;29;20082;-73
2021/12/14 12:59:59;;;;;;;168.93;87.60;;;4.50;99.90;;;;;;4957317;29;20462;-72
2021/12/14 13:02:34;;;;;;;145.50;75.50;;;4.50;99.90;;;;;;4957239;28;20031;-73
2021/12/14 13:05:09;;;;;;;130.77;66.68;;;4.40;99.90;;;;;;4957026;29;20063;-73
2021/12/14 13:07:40;;;;;;;151.90;76.80;;;4.40;99.90;;;;;;4956919;29;20106;-74
2021/12/14 13:10:05;;;;;;;152.55;78.22;;;4.30;99.90;;;;;;4957358;29;20024;-72
2021/12/14 13:12:44;;;;;;;169.38;89.32;;;4.30;99.90;;;;;;4957331;29;20086;-73
2021/12/14 13:15:44;;;;;;;146.68;76.63;;;4.30;99.90;;;;;;4956386;28;20039;-74
2021/12/14 13:18:36;;;;;;;148.18;80.13;;;4.30;99.90;;;;;;4949481;28;20067;-73
2021/12/14 13:21:21;;;;;;;145.18;73.60;;;4.30;99.90;;;;;;4957115;28;20496;-73
2021/12/14 13:23:52;;;;;;;145.50;72.15;;;4.30;99.90;;;;;;4957004;29;20031;-73
2021/12/14 13:26:21;;;;;;;108.78;58.95;;;4.30;99.90;;;;;;4956694;29;20027;-74